Time;durP1;ratioP1;P1;durP2;ratioP2;P2;SDS_P1;SDS_P2;PMS_P1;PMS_P2;Temp;Humidity;BMP_temperature;BMP_pressure;BME280_temperature;BME280_humidity;BME280_pressure;Samples;Min_cycle;Max_cycle;Signal;HPM_P1;HPM_P2
2021/12/05 00:19:04;;;;;;;59.83;3.80;;;;;;;;;;5050898;28;20271;-64
2021/12/05 00:24:15;;;;;;;61.35;4.25;;;;;;;;;;5050027;28;20209;-64
2021/12/05 00:26:44;;;;;;;60.45;3.30;;;;;;;;;;5051034;28;20217;-64
2021/12/05 00:29:15;;;;;;;62.03;3.42;;;;;;;;;;5050557;28;20674;-64
2021/12/05 00:32:05;;;;;;;60.65;3.50;;;;;;;;;;5051445;28;20547;-64
2021/12/05 00:35:09;;;;;;;63.55;3.30;;;;;;;;;;5050851;28;20681;-63
2021/12/05 00:43:45;;;;;;;65.07;3.72;;;;;;;;;;5046132;28;20193;-64
2021/12/05 00:52:02;;;;;;;60.45;3.20;;;;;;;;;;5074576;28;20207;-64
2021/12/05 00:55:04;;;;;;;58.30;3.30;;;;;;;;;;5074318;28;20209;-64
2021/12/05 01:08:54;;;;;;;60.92;3.38;;;;;;;;;;5073830;28;20287;-65
2021/12/05 01:11:41;;;;;;;62.97;3.55;;;;;;;;;;5074182;28;20465;-64
2021/12/05 01:14:22;;;;;;;59.05;3.15;;;;;;;;;;5073186;28;20255;-64
2021/12/05 01:16:50;;;;;;;60.58;3.50;;;;;;;;;;5074011;28;20212;-64
2021/12/05 01:19:17;;;;;;;59.50;3.28;;;;;;;;;;5073497;28;20312;-64
2021/12/05 01:21:48;;;;;;;60.35;3.13;;;;;;;;;;5074440;28;20263;-64
2021/12/05 01:24:24;;;;;;;60.72;3.30;;;;;;;;;;5074123;28;20552;-64
2021/12/05 01:26:57;;;;;;;63.10;3.53;;;;;;;;;;5073918;28;20219;-64
2021/12/05 01:29:33;;;;;;;59.10;3.60;;;;;;;;;;5073420;28;20236;-64
2021/12/05 01:32:11;;;;;;;58.58;2.95;;;;;;;;;;5073885;28;20208;-64
2021/12/05 01:37:30;;;;;;;60.78;3.65;;;;;;;;;;5071293;28;20316;-64
2021/12/05 01:40:15;;;;;;;60.40;3.40;;;;;;;;;;5073464;28;20228;-64
2021/12/05 01:54:39;;;;;;;58.83;3.00;;;;;;;;;;5073264;28;20193;-63
2021/12/05 02:00:30;;;;;;;58.72;3.08;;;;;;;;;;5030829;28;20222;-63
2021/12/05 02:08:57;;;;;;;59.53;3.05;;;;;;;;;;5072733;28;20289;-64
2021/12/05 02:33:46;;;;;;;58.78;3.42;;;;;;;;;;5068770;28;20213;-64
2021/12/05 02:36:41;;;;;;;60.40;3.65;;;;;;;;;;5072331;28;20219;-64
2021/12/05 02:39:19;;;;;;;59.17;3.50;;;;;;;;;;5072439;28;20232;-64
2021/12/05 02:41:48;;;;;;;60.42;3.30;;;;;;;;;;5072358;28;20743;-64
2021/12/05 02:44:21;;;;;;;60.03;3.17;;;;;;;;;;5069948;28;20201;-64
2021/12/05 02:46:50;;;;;;;59.55;3.10;;;;;;;;;;5072419;28;20213;-64
2021/12/05 02:49:18;;;;;;;60.55;3.25;;;;;;;;;;5069391;28;20251;-64
2021/12/05 02:51:52;;;;;;;58.70;3.22;;;;;;;;;;5072207;28;20197;-64
2021/12/05 02:54:21;;;;;;;58.40;3.00;;;;;;;;;;5072194;28;20216;-64
2021/12/05 02:56:50;;;;;;;63.78;4.45;;;;;;;;;;5072038;28;20228;-64
2021/12/05 02:59:25;;;;;;;112.35;17.27;;;;;;;;;;5052773;28;20231;-64
2021/12/05 03:01:54;;;;;;;124.03;24.65;;;;;;;;;;5052159;28;20274;-64
2021/12/05 03:04:23;;;;;;;77.75;9.20;;;;;;;;;;5052115;28;20213;-64
2021/12/05 03:06:53;;;;;;;60.17;4.20;;;;;;;;;;5051561;28;20202;-64
2021/12/05 03:09:22;;;;;;;60.15;3.63;;;;;;;;;;5051631;28;20225;-64
2021/12/05 03:11:50;;;;;;;60.50;3.50;;;;;;;;;;5051786;28;20205;-64
2021/12/05 03:14:17;;;;;;;60.50;3.50;;;;;;;;;;5051885;28;20211;-64
2021/12/05 03:16:45;;;;;;;61.80;3.60;;;;;;;;;;5051615;28;20300;-64
2021/12/05 03:19:12;;;;;;;61.85;3.60;;;;;;;;;;5052915;28;20284;-64
2021/12/05 03:21:40;;;;;;;59.05;3.40;;;;;;;;;;5072344;28;20879;-64
2021/12/05 03:24:08;;;;;;;60.42;3.35;;;;;;;;;;5077191;28;20249;-64
2021/12/05 03:26:38;;;;;;;60.90;3.20;;;;;;;;;;5077629;28;20205;-64
2021/12/05 03:29:07;;;;;;;60.22;3.40;;;;;;;;;;5077819;28;20239;-64
2021/12/05 03:31:34;;;;;;;61.25;3.40;;;;;;;;;;5077889;28;20232;-64
2021/12/05 03:34:02;;;;;;;63.60;3.67;;;;;;;;;;5077320;28;20244;-64
2021/12/05 03:36:30;;;;;;;59.85;3.45;;;;;;;;;;5077416;28;20386;-64
2021/12/05 03:38:57;;;;;;;60.58;3.00;;;;;;;;;;5076969;28;20252;-64
2021/12/05 03:41:26;;;;;;;61.00;3.08;;;;;;;;;;5078116;28;20250;-64
2021/12/05 03:43:56;;;;;;;58.80;3.35;;;;;;;;;;5077926;28;20211;-64
2021/12/05 03:46:23;;;;;;;60.55;3.70;;;;;;;;;;5077674;28;20235;-64
2021/12/05 03:48:51;;;;;;;59.47;3.95;;;;;;;;;;5078244;28;20662;-64
2021/12/05 03:51:20;;;;;;;58.30;3.20;;;;;;;;;;5077749;28;20241;-64
2021/12/05 03:53:47;;;;;;;59.50;3.50;;;;;;;;;;5073995;28;20288;-64
2021/12/05 03:56:14;;;;;;;61.67;3.83;;;;;;;;;;5077475;28;20211;-64
2021/12/05 03:58:42;;;;;;;62.30;3.20;;;;;;;;;;5076327;28;20225;-64
2021/12/05 04:01:11;;;;;;;58.78;3.50;;;;;;;;;;5077100;28;20221;-64
2021/12/05 04:03:39;;;;;;;59.20;3.60;;;;;;;;;;5078510;28;20212;-64
2021/12/05 04:06:07;;;;;;;60.20;4.35;;;;;;;;;;5077995;28;20204;-64
2021/12/05 04:08:35;;;;;;;59.05;3.35;;;;;;;;;;5077122;28;20252;-64
2021/12/05 04:11:04;;;;;;;58.78;3.40;;;;;;;;;;5078371;28;20260;-64
2021/12/05 04:13:32;;;;;;;58.90;3.20;;;;;;;;;;5077424;28;20268;-63
2021/12/05 04:16:01;;;;;;;60.45;3.20;;;;;;;;;;5077405;28;20291;-63
2021/12/05 04:18:30;;;;;;;63.47;3.50;;;;;;;;;;5076835;28;20228;-64
2021/12/05 04:20:57;;;;;;;58.35;3.08;;;;;;;;;;5080730;28;20216;-64
2021/12/05 04:23:25;;;;;;;63.00;3.38;;;;;;;;;;5078578;28;20201;-63
2021/12/05 04:25:52;;;;;;;58.70;3.20;;;;;;;;;;5081785;28;20232;-64
2021/12/05 04:28:20;;;;;;;58.67;3.33;;;;;;;;;;5080350;28;20217;-64
2021/12/05 04:30:48;;;;;;;59.00;3.30;;;;;;;;;;5080480;28;20288;-64
2021/12/05 04:33:15;;;;;;;58.70;3.30;;;;;;;;;;5080524;28;20700;-64
2021/12/05 04:35:45;;;;;;;62.47;3.20;;;;;;;;;;5080813;28;20205;-64
2021/12/05 04:38:12;;;;;;;59.83;3.20;;;;;;;;;;5079659;28;20303;-64
2021/12/05 04:40:39;;;;;;;59.60;3.28;;;;;;;;;;5080820;28;20251;-63
2021/12/05 04:43:06;;;;;;;61.70;4.43;;;;;;;;;;5081005;28;20209;-64
2021/12/05 04:45:35;;;;;;;62.08;3.47;;;;;;;;;;5080386;28;20215;-64
2021/12/05 04:48:03;;;;;;;60.53;3.30;;;;;;;;;;5081061;28;20712;-64
2021/12/05 04:50:31;;;;;;;57.88;3.35;;;;;;;;;;5080438;28;20320;-64
2021/12/05 04:52:59;;;;;;;59.72;3.80;;;;;;;;;;5080882;28;20208;-64
2021/12/05 04:55:27;;;;;;;59.42;3.08;;;;;;;;;;5077139;28;20208;-64
2021/12/05 04:57:54;;;;;;;60.17;3.35;;;;;;;;;;5080171;28;20319;-64
2021/12/05 05:00:22;;;;;;;63.13;3.47;;;;;;;;;;5080599;28;20253;-65
2021/12/05 05:02:50;;;;;;;60.15;3.20;;;;;;;;;;5080430;28;20292;-64
2021/12/05 05:05:17;;;;;;;61.85;3.38;;;;;;;;;;5079913;28;20229;-64
2021/12/05 05:07:44;;;;;;;60.47;3.42;;;;;;;;;;5079649;28;20642;-64
2021/12/05 05:10:15;;;;;;;57.80;3.50;;;;;;;;;;5079797;28;20247;-64
2021/12/05 05:12:42;;;;;;;58.30;2.70;;;;;;;;;;5080020;28;20197;-64
2021/12/05 05:15:10;;;;;;;58.67;3.00;;;;;;;;;;5079997;28;20209;-64
2021/12/05 05:17:39;;;;;;;59.17;3.13;;;;;;;;;;5078834;28;20211;-64
2021/12/05 05:20:15;;;;;;;66.03;3.42;;;;;;;;;;5075339;28;20225;-64
2021/12/05 05:22:49;;;;;;;63.38;3.92;;;;;;;;;;5074456;28;20224;-64
2021/12/05 05:25:55;;;;;;;61.35;3.50;;;;;;;;;;5074438;28;20208;-65
2021/12/05 05:39:40;;;;;;;64.72;3.22;;;;;;;;;;5073424;28;20271;-64
2021/12/05 05:47:41;;;;;;;59.08;3.47;;;;;;;;;;5066197;28;20660;-64
2021/12/05 05:50:08;;;;;;;63.45;3.13;;;;;;;;;;5076502;28;20251;-64
2021/12/05 05:52:35;;;;;;;58.75;2.90;;;;;;;;;;5077723;28;20200;-64
2021/12/05 05:55:02;;;;;;;58.80;3.00;;;;;;;;;;5077495;28;20636;-64
2021/12/05 05:57:32;;;;;;;57.90;2.90;;;;;;;;;;5074550;28;20209;-64
2021/12/05 06:00:06;;;;;;;57.53;3.08;;;;;;;;;;5076868;28;20290;-65
2021/12/05 06:05:18;;;;;;;58.17;3.13;;;;;;;;;;5070552;28;20687;-64
2021/12/05 06:07:46;;;;;;;59.08;3.17;;;;;;;;;;5052900;28;20765;-64
2021/12/05 06:10:15;;;;;;;59.45;3.10;;;;;;;;;;5052872;28;20226;-65
2021/12/05 06:12:43;;;;;;;59.75;3.58;;;;;;;;;;5053159;28;20208;-64
2021/12/05 06:15:12;;;;;;;60.15;3.95;;;;;;;;;;5053300;28;20206;-64
2021/12/05 06:17:40;;;;;;;58.70;3.30;;;;;;;;;;5052890;28;20522;-64
2021/12/05 06:20:08;;;;;;;61.42;3.60;;;;;;;;;;5052591;28;20232;-64
2021/12/05 06:22:35;;;;;;;58.45;3.17;;;;;;;;;;5052781;28;20228;-64
2021/12/05 06:25:03;;;;;;;59.03;3.25;;;;;;;;;;5052648;28;20209;-64
2021/12/05 06:27:30;;;;;;;58.20;2.80;;;;;;;;;;5053174;28;20209;-64
2021/12/05 06:30:07;;;;;;;60.45;3.10;;;;;;;;;;5062631;28;20224;-64
2021/12/05 06:36:51;;;;;;;64.78;3.50;;;;;;;;;;5072482;28;20318;-64
2021/12/05 06:38:38;;;;;;;59.30;3.30;;;;;;;;;;5072140;28;20219;-64
2021/12/05 06:41:12;;;;;;;59.03;3.30;;;;;;;;;;5072173;28;20201;-65
2021/12/05 06:46:28;;;;;;;62.63;3.80;;;;;;;;;;5072413;28;20192;-65
2021/12/05 06:48:56;;;;;;;59.53;3.35;;;;;;;;;;5072008;28;20231;-64
2021/12/05 06:51:25;;;;;;;58.03;3.20;;;;;;;;;;5074204;28;20276;-64
2021/12/05 06:53:52;;;;;;;64.90;3.63;;;;;;;;;;5072707;28;20200;-64
2021/12/05 06:56:20;;;;;;;62.78;3.22;;;;;;;;;;5071965;28;20296;-64
2021/12/05 06:58:47;;;;;;;67.50;3.92;;;;;;;;;;5072050;28;20697;-64
2021/12/05 07:01:15;;;;;;;62.78;3.53;;;;;;;;;;5070869;28;20238;-64
2021/12/05 07:03:45;;;;;;;59.08;2.88;;;;;;;;;;5072508;28;20280;-64
2021/12/05 07:06:19;;;;;;;60.05;3.50;;;;;;;;;;5071940;28;20213;-64
2021/12/05 07:08:47;;;;;;;58.33;2.60;;;;;;;;;;5071699;28;20221;-65
2021/12/05 07:11:20;;;;;;;61.13;3.30;;;;;;;;;;5072192;28;20639;-64
2021/12/05 07:16:38;;;;;;;60.72;3.38;;;;;;;;;;5072139;28;20195;-65
2021/12/05 07:19:19;;;;;;;58.63;2.95;;;;;;;;;;5071579;28;20221;-64
2021/12/05 07:21:51;;;;;;;58.65;3.10;;;;;;;;;;5072099;28;20224;-65
2021/12/05 07:40:18;;;;;;;59.70;3.75;;;;;;;;;;5069687;28;20193;-65
2021/12/05 07:40:55;;;;;;;59.85;4.22;;;;;;;;;;5071903;28;20616;-64
2021/12/05 07:43:23;;;;;;;59.22;3.92;;;;;;;;;;5071726;28;20315;-64
2021/12/05 07:45:54;;;;;;;60.75;3.90;;;;;;;;;;5071735;28;20707;-65
2021/12/05 07:48:26;;;;;;;61.15;4.43;;;;;;;;;;5071372;28;20240;-65
2021/12/05 07:51:04;;;;;;;62.35;5.00;;;;;;;;;;5071738;28;20700;-65
2021/12/05 07:53:37;;;;;;;58.50;3.20;;;;;;;;;;5072733;28;20228;-64
2021/12/05 07:56:11;;;;;;;58.75;3.80;;;;;;;;;;5075746;28;20212;-64
2021/12/05 08:15:15;;;;;;;58.00;3.30;;;;;;;;;;5075309;28;20239;-64
2021/12/05 08:17:49;;;;;;;60.20;2.95;;;;;;;;;;5075373;28;20208;-64
2021/12/05 08:20:17;;;;;;;64.00;3.90;;;;;;;;;;5075408;28;20224;-64
2021/12/05 08:22:45;;;;;;;58.80;3.65;;;;;;;;;;5075462;28;20657;-64
2021/12/05 08:25:13;;;;;;;57.70;2.85;;;;;;;;;;5075382;28;20296;-64
2021/12/05 08:27:46;;;;;;;61.15;3.30;;;;;;;;;;5074014;28;20204;-64
2021/12/05 08:30:25;;;;;;;61.20;3.60;;;;;;;;;;5075425;28;20282;-65
2021/12/05 08:33:12;;;;;;;58.25;3.05;;;;;;;;;;5075298;28;20201;-64
2021/12/05 09:20:05;;;;;;;59.33;3.10;;;;;;;;;;5074155;28;20220;-64
2021/12/05 09:23:32;;;;;;;60.90;3.70;;;;;;;;;;5074195;28;20225;-65
2021/12/05 09:26:16;;;;;;;61.75;2.92;;;;;;;;;;5073910;28;20551;-64
2021/12/05 09:51:24;;;;;;;59.28;3.00;;;;;;;;;;5073658;28;20197;-64
2021/12/05 10:02:43;;;;;;;58.42;2.58;;;;;;;;;;5031047;28;20227;-63
2021/12/05 10:08:35;;;;;;;58.37;2.90;;;;;;;;;;5021755;28;20202;-65
2021/12/05 10:14:00;;;;;;;59.27;3.13;;;;;;;;;;5065566;28;21026;-65
2021/12/05 10:16:43;;;;;;;58.47;3.03;;;;;;;;;;5072775;28;20524;-64
2021/12/05 10:19:48;;;;;;;59.90;3.10;;;;;;;;;;5072490;28;20838;-64
2021/12/05 10:36:08;;;;;;;58.20;3.20;;;;;;;;;;5030462;28;20490;-63
2021/12/05 10:38:41;;;;;;;60.60;3.53;;;;;;;;;;5031111;28;20482;-64
2021/12/05 10:41:22;;;;;;;59.07;3.10;;;;;;;;;;5072611;28;20494;-64
2021/12/05 10:43:51;;;;;;;59.03;3.33;;;;;;;;;;5072727;28;20856;-64
2021/12/05 10:46:19;;;;;;;59.80;2.60;;;;;;;;;;5072545;28;20558;-65
2021/12/05 10:48:48;;;;;;;57.93;2.93;;;;;;;;;;5072204;28;20831;-65
2021/12/05 10:51:18;;;;;;;59.20;3.20;;;;;;;;;;5072470;28;20455;-65
2021/12/05 10:53:47;;;;;;;58.67;3.07;;;;;;;;;;5072270;28;20539;-65
2021/12/05 10:56:16;;;;;;;59.67;2.77;;;;;;;;;;5072490;28;20450;-65
2021/12/05 10:58:45;;;;;;;61.20;3.07;;;;;;;;;;5071864;28;20466;-65
2021/12/05 11:01:14;;;;;;;58.23;2.90;;;;;;;;;;5071669;28;20870;-65
2021/12/05 11:03:42;;;;;;;60.17;3.13;;;;;;;;;;5071613;28;20483;-65
2021/12/05 11:06:24;;;;;;;58.90;2.80;;;;;;;;;;5071525;28;20448;-65
2021/12/05 11:08:53;;;;;;;59.77;2.83;;;;;;;;;;5071525;28;20557;-65
2021/12/05 11:11:20;;;;;;;59.30;2.83;;;;;;;;;;5071769;28;20548;-65
2021/12/05 11:13:48;;;;;;;58.20;2.80;;;;;;;;;;5070486;28;20462;-64
2021/12/05 11:16:36;;;;;;;58.90;2.70;;;;;;;;;;5071424;28;20970;-64
2021/12/05 11:19:09;;;;;;;60.83;3.30;;;;;;;;;;5071622;28;20489;-64
2021/12/05 11:21:46;;;;;;;58.70;2.90;;;;;;;;;;5071873;28;20454;-64
2021/12/05 11:24:16;;;;;;;59.77;3.00;;;;;;;;;;5071669;28;20445;-65
2021/12/05 11:26:44;;;;;;;57.97;2.70;;;;;;;;;;5071805;28;20493;-63
2021/12/05 11:29:12;;;;;;;58.50;3.00;;;;;;;;;;5070757;28;20467;-65
2021/12/05 11:31:39;;;;;;;60.20;3.40;;;;;;;;;;5072043;28;20534;-65
2021/12/05 11:34:07;;;;;;;60.43;3.30;;;;;;;;;;5071908;28;20522;-64
2021/12/05 11:36:34;;;;;;;59.17;2.97;;;;;;;;;;5071485;28;20999;-65
2021/12/05 11:39:18;;;;;;;64.23;3.27;;;;;;;;;;5071496;28;20469;-65
2021/12/05 11:41:46;;;;;;;58.00;2.73;;;;;;;;;;5071051;28;20545;-65
2021/12/05 11:44:17;;;;;;;58.53;2.70;;;;;;;;;;5070400;28;20907;-63
2021/12/05 11:46:44;;;;;;;58.50;2.87;;;;;;;;;;5070890;28;20454;-65
2021/12/05 11:49:13;;;;;;;58.50;3.07;;;;;;;;;;5071717;28;20474;-65
2021/12/05 11:51:44;;;;;;;58.03;3.00;;;;;;;;;;5071554;28;20457;-65
2021/12/05 11:54:13;;;;;;;58.17;2.60;;;;;;;;;;5071636;28;20447;-65
2021/12/05 11:56:47;;;;;;;58.67;3.00;;;;;;;;;;5071516;28;20449;-64
2021/12/05 11:59:18;;;;;;;59.10;3.10;;;;;;;;;;5071416;28;20537;-65
2021/12/05 12:01:47;;;;;;;58.20;2.80;;;;;;;;;;5071548;28;20541;-65
2021/12/05 12:04:15;;;;;;;61.13;2.80;;;;;;;;;;5071415;28;20488;-65
2021/12/05 12:06:43;;;;;;;58.20;2.90;;;;;;;;;;5071598;28;20449;-65
2021/12/05 12:09:10;;;;;;;61.00;3.17;;;;;;;;;;5071353;28;20473;-65
2021/12/05 12:11:37;;;;;;;60.27;3.10;;;;;;;;;;5071703;28;20811;-64
2021/12/05 12:14:05;;;;;;;59.25;3.00;;;;;;;;;;5071526;28;20445;-64
2021/12/05 12:16:34;;;;;;;58.25;2.63;;;;;;;;;;5071399;28;20298;-64
2021/12/05 12:19:02;;;;;;;59.42;2.90;;;;;;;;;;5070943;28;20320;-65
2021/12/05 12:21:38;;;;;;;59.30;3.23;;;;;;;;;;5071386;28;20243;-66
2021/12/05 12:24:05;;;;;;;58.83;3.07;;;;;;;;;;5071196;28;20490;-65
2021/12/05 12:26:32;;;;;;;60.40;3.23;;;;;;;;;;5071369;28;20450;-64
2021/12/05 12:29:00;;;;;;;58.70;2.80;;;;;;;;;;5071027;28;20592;-65
2021/12/05 12:31:32;;;;;;;58.90;2.83;;;;;;;;;;5071141;28;20975;-65
2021/12/05 12:34:03;;;;;;;60.00;2.90;;;;;;;;;;5071455;28;20448;-65
2021/12/05 12:36:34;;;;;;;59.17;3.23;;;;;;;;;;5071257;28;20819;-65
2021/12/05 12:39:04;;;;;;;57.80;2.60;;;;;;;;;;5070975;28;20475;-65
2021/12/05 12:41:32;;;;;;;59.40;2.80;;;;;;;;;;5073884;28;20454;-65
2021/12/05 12:44:00;;;;;;;59.13;2.60;;;;;;;;;;5074690;28;20485;-64
2021/12/05 12:46:30;;;;;;;58.43;2.93;;;;;;;;;;5075222;28;20795;-65
2021/12/05 12:49:00;;;;;;;58.37;2.90;;;;;;;;;;5074376;28;20547;-65
2021/12/05 12:51:31;;;;;;;59.40;2.93;;;;;;;;;;5074592;28;20546;-65
2021/12/05 12:54:01;;;;;;;60.17;3.70;;;;;;;;;;5074680;28;20443;-65
2021/12/05 12:56:28;;;;;;;61.40;3.30;;;;;;;;;;5074438;28;20451;-66
2021/12/05 12:58:58;;;;;;;59.73;2.93;;;;;;;;;;5074287;28;20549;-65
2021/12/05 13:04:33;;;;;;;58.00;2.80;;;;;;;;;;5056452;28;20477;-66
2021/12/05 13:10:00;;;;;;;58.53;3.10;;;;;;;;;;5074288;28;20456;-66
2021/12/05 13:10:20;;;;;;;60.40;3.30;;;;;;;;;;5074134;28;20460;-65
2021/12/05 13:12:50;;;;;;;58.57;2.80;;;;;;;;;;5074476;28;20468;-65
2021/12/05 13:15:20;;;;;;;60.00;3.50;;;;;;;;;;5074178;28;20451;-65
2021/12/05 13:17:50;;;;;;;59.60;4.53;;;;;;;;;;5073902;28;20447;-65
2021/12/05 13:20:19;;;;;;;59.27;3.20;;;;;;;;;;5074258;28;20863;-65
2021/12/05 13:23:00;;;;;;;58.60;3.20;;;;;;;;;;5074143;28;20489;-65
2021/12/05 13:25:28;;;;;;;58.83;3.20;;;;;;;;;;5073989;28;20450;-64
2021/12/05 13:27:56;;;;;;;58.67;3.00;;;;;;;;;;5073693;28;20453;-65
2021/12/05 13:30:31;;;;;;;60.00;3.80;;;;;;;;;;5074062;28;20473;-64
2021/12/05 13:33:17;;;;;;;58.50;3.10;;;;;;;;;;5074181;28;20450;-65
2021/12/05 13:35:45;;;;;;;58.43;2.77;;;;;;;;;;5073779;28;20541;-65
2021/12/05 13:38:28;;;;;;;60.87;4.33;;;;;;;;;;5073318;28;20837;-64
2021/12/05 13:40:56;;;;;;;58.83;3.00;;;;;;;;;;5073798;28;21025;-65
2021/12/05 13:43:28;;;;;;;58.40;3.00;;;;;;;;;;5073698;28;20475;-65
2021/12/05 13:45:57;;;;;;;59.40;2.97;;;;;;;;;;5073534;28;20951;-64
2021/12/05 13:48:28;;;;;;;60.37;3.10;;;;;;;;;;5073248;28;20447;-64
2021/12/05 13:50:57;;;;;;;105.00;26.90;;;;;;;;;;5073351;28;20451;-64
2021/12/05 13:53:29;;;;;;;58.80;3.00;;;;;;;;;;5073666;28;20497;-64
2021/12/05 13:56:02;;;;;;;59.27;2.90;;;;;;;;;;5073610;28;20445;-64
2021/12/05 13:58:38;;;;;;;58.27;2.83;;;;;;;;;;5073237;28;20504;-64
2021/12/05 14:01:06;;;;;;;72.93;10.90;;;;;;;;;;5073258;28;20453;-65
2021/12/05 14:03:47;;;;;;;58.60;2.80;;;;;;;;;;5073542;28;20495;-64
2021/12/05 14:06:32;;;;;;;58.47;2.97;;;;;;;;;;5073421;28;20460;-65
2021/12/05 14:09:02;;;;;;;59.57;2.70;;;;;;;;;;5072993;28;20507;-64
2021/12/05 14:11:30;;;;;;;59.70;3.10;;;;;;;;;;5073040;28;20898;-65
2021/12/05 14:13:58;;;;;;;58.90;2.80;;;;;;;;;;5073421;28;20441;-64
2021/12/05 14:16:31;;;;;;;59.87;3.03;;;;;;;;;;5073145;28;20541;-65
2021/12/05 14:18:58;;;;;;;57.90;2.70;;;;;;;;;;5072898;28;20473;-64
2021/12/05 14:21:26;;;;;;;57.83;2.70;;;;;;;;;;5072943;28;20967;-64
2021/12/05 14:23:54;;;;;;;58.90;3.00;;;;;;;;;;5072843;28;20483;-64
2021/12/05 14:26:25;;;;;;;58.67;3.00;;;;;;;;;;5072808;28;20454;-64
2021/12/05 14:28:57;;;;;;;58.10;2.80;;;;;;;;;;5072685;28;20505;-64
2021/12/05 14:31:25;;;;;;;58.20;2.90;;;;;;;;;;5072924;28;20447;-64
2021/12/05 14:33:53;;;;;;;59.77;3.30;;;;;;;;;;5072747;28;20521;-64
2021/12/05 14:36:21;;;;;;;58.27;2.90;;;;;;;;;;5072588;28;20445;-65
2021/12/05 14:38:48;;;;;;;58.37;3.10;;;;;;;;;;5072320;28;20854;-65
2021/12/05 14:41:15;;;;;;;58.60;2.83;;;;;;;;;;5072787;28;20448;-65
2021/12/05 14:43:42;;;;;;;60.50;2.80;;;;;;;;;;5072491;28;20569;-64
2021/12/05 14:46:11;;;;;;;58.20;2.83;;;;;;;;;;5072568;28;20462;-64
2021/12/05 14:48:38;;;;;;;58.30;2.60;;;;;;;;;;5072206;28;20884;-65
2021/12/05 14:51:05;;;;;;;59.40;3.20;;;;;;;;;;5072315;28;20443;-65
2021/12/05 14:53:33;;;;;;;58.60;2.70;;;;;;;;;;5072525;28;20453;-65
2021/12/05 14:56:00;;;;;;;58.57;3.00;;;;;;;;;;5072244;28;21040;-65
2021/12/05 14:58:30;;;;;;;58.70;3.13;;;;;;;;;;5072323;28;20447;-64
2021/12/05 15:00:58;;;;;;;58.80;3.40;;;;;;;;;;5072267;28;20450;-65
2021/12/05 15:03:28;;;;;;;58.97;3.40;;;;;;;;;;5071529;28;20986;-64
2021/12/05 15:05:57;;;;;;;59.77;3.50;;;;;;;;;;5072183;28;20456;-65
2021/12/05 15:08:25;;;;;;;59.00;3.53;;;;;;;;;;5072017;28;20450;-64
2021/12/05 15:10:55;;;;;;;59.87;4.13;;;;;;;;;;5072211;28;20453;-64
2021/12/05 15:13:22;;;;;;;59.67;3.10;;;;;;;;;;5072168;28;20594;-64
2021/12/05 15:15:49;;;;;;;58.95;3.20;;;;;;;;;;5072038;28;20948;-64
2021/12/05 15:18:18;;;;;;;59.90;3.27;;;;;;;;;;5069754;28;20878;-64
2021/12/05 15:20:47;;;;;;;59.70;3.60;;;;;;;;;;5072188;28;20898;-65
2021/12/05 15:23:14;;;;;;;60.67;4.18;;;;;;;;;;5071878;28;20704;-65
2021/12/05 15:25:43;;;;;;;64.93;5.03;;;;;;;;;;5072019;28;20220;-64
2021/12/05 15:28:10;;;;;;;62.75;4.70;;;;;;;;;;5071671;28;20559;-65
2021/12/05 15:30:39;;;;;;;62.05;3.80;;;;;;;;;;5071832;28;20211;-65
2021/12/05 15:33:08;;;;;;;62.95;4.00;;;;;;;;;;5072160;28;20627;-64
2021/12/05 15:35:35;;;;;;;58.70;3.40;;;;;;;;;;5071958;28;20292;-64
2021/12/05 15:38:06;;;;;;;61.90;3.70;;;;;;;;;;5071516;28;20212;-65
2021/12/05 15:40:35;;;;;;;59.75;3.78;;;;;;;;;;5071900;28;20308;-64
2021/12/05 15:43:04;;;;;;;58.67;3.40;;;;;;;;;;5071725;28;20209;-65
2021/12/05 15:45:32;;;;;;;59.00;3.30;;;;;;;;;;5071809;28;20225;-64
2021/12/05 15:47:59;;;;;;;59.90;3.50;;;;;;;;;;5071353;28;20193;-64
2021/12/05 15:50:27;;;;;;;60.25;4.05;;;;;;;;;;5071747;28;20599;-64
2021/12/05 15:52:55;;;;;;;61.15;4.15;;;;;;;;;;5071697;28;20205;-64
2021/12/05 15:55:32;;;;;;;64.43;3.88;;;;;;;;;;5071599;28;20211;-65
2021/12/05 15:58:02;;;;;;;60.35;3.22;;;;;;;;;;5071326;28;20702;-65
2021/12/05 16:00:31;;;;;;;59.72;3.80;;;;;;;;;;5071727;28;20675;-64
2021/12/05 16:03:02;;;;;;;62.30;5.30;;;;;;;;;;5071458;28;20209;-64
2021/12/05 16:05:29;;;;;;;60.72;4.35;;;;;;;;;;5071245;28;20715;-65
2021/12/05 16:08:01;;;;;;;60.88;4.50;;;;;;;;;;5071199;28;20200;-65
2021/12/05 16:10:32;;;;;;;58.85;3.30;;;;;;;;;;5071649;28;20232;-64
2021/12/05 16:13:00;;;;;;;59.75;3.80;;;;;;;;;;5071387;28;20201;-65
2021/12/05 16:15:28;;;;;;;58.42;3.17;;;;;;;;;;5073946;28;20197;-65
2021/12/05 16:17:57;;;;;;;58.90;3.50;;;;;;;;;;5075195;28;20205;-64
2021/12/05 16:20:25;;;;;;;60.53;3.65;;;;;;;;;;5075129;28;20253;-64
2021/12/05 16:23:05;;;;;;;59.50;3.75;;;;;;;;;;5075095;28;20208;-65
2021/12/05 16:25:34;;;;;;;60.03;3.40;;;;;;;;;;5075171;28;20235;-65
2021/12/05 16:28:04;;;;;;;59.80;3.63;;;;;;;;;;5074826;28;20243;-65
2021/12/05 16:30:33;;;;;;;59.25;3.58;;;;;;;;;;5075083;28;20316;-65
2021/12/05 16:33:01;;;;;;;59.25;3.90;;;;;;;;;;5075049;28;20300;-65
2021/12/05 16:35:29;;;;;;;59.63;3.70;;;;;;;;;;5074796;28;20598;-65
2021/12/05 16:37:57;;;;;;;59.28;3.72;;;;;;;;;;5074682;28;20664;-64
2021/12/05 16:40:24;;;;;;;58.72;3.53;;;;;;;;;;5074924;28;20221;-65
2021/12/05 16:43:06;;;;;;;60.42;3.88;;;;;;;;;;5074912;28;20201;-65
2021/12/05 16:45:35;;;;;;;59.47;3.70;;;;;;;;;;5074525;28;20315;-64
2021/12/05 16:48:02;;;;;;;61.40;4.60;;;;;;;;;;5074479;28;20291;-65
2021/12/05 16:50:29;;;;;;;60.75;4.05;;;;;;;;;;5074802;28;20671;-64
2021/12/05 16:52:56;;;;;;;60.00;4.05;;;;;;;;;;5074694;28;20209;-65
2021/12/05 16:55:26;;;;;;;59.92;4.40;;;;;;;;;;5074426;28;20742;-64
2021/12/05 16:58:02;;;;;;;59.95;4.50;;;;;;;;;;5074356;28;20293;-65
2021/12/05 17:00:31;;;;;;;61.45;5.32;;;;;;;;;;5074757;28;20229;-65
2021/12/05 17:03:00;;;;;;;62.10;4.70;;;;;;;;;;5074723;28;20254;-65
2021/12/05 17:05:28;;;;;;;68.97;8.38;;;;;;;;;;5074368;28;20224;-65
2021/12/05 17:08:02;;;;;;;62.75;6.82;;;;;;;;;;5074114;28;20211;-65
2021/12/05 17:10:35;;;;;;;60.88;4.78;;;;;;;;;;5074124;28;20315;-64
2021/12/05 17:13:13;;;;;;;61.58;4.38;;;;;;;;;;5074735;28;20620;-65
2021/12/05 17:15:45;;;;;;;60.13;4.10;;;;;;;;;;5074262;28;20687;-64
2021/12/05 17:18:15;;;;;;;61.22;4.65;;;;;;;;;;5073909;28;20740;-64
2021/12/05 17:20:45;;;;;;;59.33;3.83;;;;;;;;;;5074275;28;20261;-64
2021/12/05 17:23:14;;;;;;;61.33;4.03;;;;;;;;;;5074457;28;20211;-64
2021/12/05 17:25:44;;;;;;;112.43;23.90;;;;;;;;;;5073953;28;20661;-63
2021/12/05 17:28:14;;;;;;;95.90;18.63;;;;;;;;;;5069751;28;20507;-65
2021/12/05 17:30:50;;;;;;;81.15;14.40;;;;;;;;;;5073330;28;20698;-65
2021/12/05 17:33:25;;;;;;;76.30;11.90;;;;;;;;;;5073252;28;20209;-64
2021/12/05 17:35:52;;;;;;;74.13;11.57;;;;;;;;;;5073170;28;20200;-64
2021/12/05 17:38:31;;;;;;;88.18;12.88;;;;;;;;;;5057580;28;20220;-65
2021/12/05 17:40:59;;;;;;;72.75;11.40;;;;;;;;;;5053215;28;20700;-65
2021/12/05 17:43:27;;;;;;;74.00;10.95;;;;;;;;;;5053551;28;20233;-64
2021/12/05 17:45:54;;;;;;;71.05;11.70;;;;;;;;;;5053777;28;20229;-64
2021/12/05 17:48:22;;;;;;;72.45;11.70;;;;;;;;;;5052666;28;20210;-65
2021/12/05 17:50:52;;;;;;;81.13;13.10;;;;;;;;;;5053925;28;20206;-64
2021/12/05 17:53:19;;;;;;;73.40;11.25;;;;;;;;;;5053646;28;20255;-64
2021/12/05 17:55:48;;;;;;;74.05;10.88;;;;;;;;;;5053411;28;20288;-64
2021/12/05 17:58:36;;;;;;;68.03;9.15;;;;;;;;;;5052990;28;20804;-64
2021/12/05 18:03:51;;;;;;;71.65;10.20;;;;;;;;;;5041874;28;20201;-64
2021/12/05 18:06:18;;;;;;;67.30;9.68;;;;;;;;;;5053104;28;20233;-64
2021/12/05 18:08:47;;;;;;;65.75;8.38;;;;;;;;;;5052273;28;20232;-64
2021/12/05 18:11:20;;;;;;;63.42;7.53;;;;;;;;;;5052926;28;20217;-64
2021/12/05 18:13:51;;;;;;;67.18;7.75;;;;;;;;;;5053208;28;20241;-64
2021/12/05 18:16:23;;;;;;;72.75;7.40;;;;;;;;;;5053116;28;20232;-65
2021/12/05 18:18:52;;;;;;;63.85;7.22;;;;;;;;;;5052634;28;20705;-64
2021/12/05 18:21:19;;;;;;;62.75;6.50;;;;;;;;;;5053330;28;20205;-64
2021/12/05 18:23:47;;;;;;;65.50;6.70;;;;;;;;;;5052803;28;20617;-64
2021/12/05 18:26:14;;;;;;;62.92;7.22;;;;;;;;;;5052681;28;20233;-64
2021/12/05 18:28:42;;;;;;;62.10;6.15;;;;;;;;;;5052051;28;20320;-64
2021/12/05 18:31:11;;;;;;;66.05;7.20;;;;;;;;;;5056465;28;20238;-65
2021/12/05 18:33:40;;;;;;;66.15;7.03;;;;;;;;;;5072824;28;20240;-64
2021/12/05 18:36:07;;;;;;;63.58;7.05;;;;;;;;;;5072290;28;20203;-64
2021/12/05 18:38:34;;;;;;;63.45;7.40;;;;;;;;;;5071762;28;20312;-64
2021/12/05 18:41:08;;;;;;;62.97;7.30;;;;;;;;;;5072694;28;20289;-64
2021/12/05 18:43:35;;;;;;;65.40;7.72;;;;;;;;;;5072621;28;20204;-64
2021/12/05 18:46:04;;;;;;;66.00;8.88;;;;;;;;;;5072594;28;20225;-64
2021/12/05 18:48:31;;;;;;;67.35;8.77;;;;;;;;;;5071325;28;20224;-64
2021/12/05 18:50:59;;;;;;;66.60;8.35;;;;;;;;;;5072645;28;20212;-65
2021/12/05 18:53:27;;;;;;;65.80;8.15;;;;;;;;;;5072217;28;20209;-64
2021/12/05 18:55:54;;;;;;;65.28;8.70;;;;;;;;;;5072269;28;20197;-64
2021/12/05 18:58:24;;;;;;;67.18;9.23;;;;;;;;;;5071782;28;20209;-65
2021/12/05 19:06:31;;;;;;;64.80;7.43;;;;;;;;;;5071887;28;20712;-65